Time;durP1;ratioP1;P1;durP2;ratioP2;P2;SDS_P1;SDS_P2;PMS_P1;PMS_P2;Temp;Humidity;BMP_temperature;BMP_pressure;BME280_temperature;BME280_humidity;BME280_pressure;Samples;Min_cycle;Max_cycle;Signal;HPM_P1;HPM_P2
2023/10/14 00:01:03;;;;;;;5.60;4.67;;;;;;;;;;4953074;29;20191;-74
2023/10/14 00:03:29;;;;;;;6.93;4.67;;;;;;;;;;4937068;29;20286;-74
2023/10/14 00:05:54;;;;;;;7.13;4.50;;;;;;;;;;4952676;29;20269;-74
2023/10/14 00:08:20;;;;;;;6.20;5.30;;;;;;;;;;4953850;29;20231;-74
2023/10/14 00:10:46;;;;;;;8.47;5.23;;;;;;;;;;4935729;29;20199;-74
2023/10/14 00:13:13;;;;;;;5.13;4.70;;;;;;;;;;4953606;28;20346;-74
2023/10/14 00:15:39;;;;;;;5.77;4.90;;;;;;;;;;4936239;29;20211;-75
2023/10/14 00:18:05;;;;;;;8.73;5.20;;;;;;;;;;4937652;29;20194;-74
2023/10/14 00:20:35;;;;;;;6.90;5.60;;;;;;;;;;4936401;29;20189;-74
2023/10/14 00:23:00;;;;;;;6.40;5.50;;;;;;;;;;4936738;29;20388;-74
2023/10/14 00:25:25;;;;;;;5.97;4.70;;;;;;;;;;4934892;29;20195;-73
2023/10/14 00:27:51;;;;;;;7.33;5.43;;;;;;;;;;4934961;29;20197;-75
2023/10/14 00:30:19;;;;;;;8.90;5.57;;;;;;;;;;4953332;28;20269;-74
2023/10/14 00:32:45;;;;;;;7.50;4.97;;;;;;;;;;4949776;28;20257;-75
2023/10/14 00:35:11;;;;;;;10.43;5.67;;;;;;;;;;4949850;28;20190;-74
2023/10/14 00:37:36;;;;;;;5.73;5.07;;;;;;;;;;4952263;29;20208;-75
2023/10/14 00:40:12;;;;;;;6.07;4.70;;;;;;;;;;4951958;28;20184;-75
2023/10/14 00:42:37;;;;;;;8.83;5.03;;;;;;;;;;4951311;28;20174;-74
2023/10/14 00:45:09;;;;;;;7.77;5.97;;;;;;;;;;4950875;29;20255;-74
2023/10/14 00:47:35;;;;;;;8.30;5.27;;;;;;;;;;4935284;29;20187;-74
2023/10/14 00:50:13;;;;;;;6.27;5.30;;;;;;;;;;4952372;29;20210;-75
2023/10/14 00:52:39;;;;;;;8.57;5.03;;;;;;;;;;4951969;29;20184;-75
2023/10/14 00:55:12;;;;;;;9.20;4.87;;;;;;;;;;4935026;29;20190;-74
2023/10/14 00:57:39;;;;;;;7.07;4.80;;;;;;;;;;4933113;28;20277;-74
2023/10/14 01:00:10;;;;;;;5.87;5.23;;;;;;;;;;4940501;29;20250;-74
2023/10/14 01:02:37;;;;;;;7.17;5.07;;;;;;;;;;4956008;28;20190;-74
2023/10/14 01:05:14;;;;;;;6.33;4.90;;;;;;;;;;4953222;28;20191;-75
2023/10/14 01:07:39;;;;;;;8.03;6.17;;;;;;;;;;4934460;28;20232;-74
2023/10/14 01:10:05;;;;;;;6.27;5.17;;;;;;;;;;4937255;29;20209;-74
2023/10/14 01:12:44;;;;;;;6.67;5.73;;;;;;;;;;4951633;28;20183;-74
2023/10/14 01:15:20;;;;;;;6.23;5.63;;;;;;;;;;4936884;29;20215;-74
2023/10/14 01:17:45;;;;;;;6.13;4.63;;;;;;;;;;4954998;28;20180;-74
2023/10/14 01:20:25;;;;;;;7.13;5.00;;;;;;;;;;4934325;29;20244;-74
2023/10/14 01:22:51;;;;;;;7.07;5.20;;;;;;;;;;4934632;29;20253;-75
2023/10/14 01:25:18;;;;;;;7.80;5.43;;;;;;;;;;4952872;28;20197;-74
2023/10/14 01:27:43;;;;;;;6.73;5.00;;;;;;;;;;4929835;29;20190;-75
2023/10/14 01:30:11;;;;;;;8.13;5.27;;;;;;;;;;4950492;28;20220;-74
2023/10/14 01:35:12;;;;;;;6.57;5.37;;;;;;;;;;4951942;29;20190;-75
2023/10/14 01:37:38;;;;;;;8.77;6.43;;;;;;;;;;4940675;28;20193;-74
2023/10/14 01:40:24;;;;;;;7.77;5.60;;;;;;;;;;4930760;29;20213;-75
2023/10/14 01:42:56;;;;;;;7.50;6.20;;;;;;;;;;4930702;28;20257;-75
2023/10/14 01:45:22;;;;;;;5.50;5.00;;;;;;;;;;4950768;29;20177;-74
2023/10/14 01:48:06;;;;;;;9.90;6.17;;;;;;;;;;4950127;28;20469;-74
2023/10/14 01:50:32;;;;;;;6.10;5.50;;;;;;;;;;4951872;29;20221;-74
2023/10/14 01:53:08;;;;;;;9.17;6.33;;;;;;;;;;4950103;29;20179;-74
2023/10/14 01:55:35;;;;;;;8.57;6.63;;;;;;;;;;4938871;29;20204;-74
2023/10/14 01:58:02;;;;;;;8.23;5.60;;;;;;;;;;4932493;29;20179;-74
2023/10/14 02:00:28;;;;;;;8.30;5.57;;;;;;;;;;4937898;29;20273;-75
2023/10/14 02:03:00;;;;;;;12.40;6.37;;;;;;;;;;4951752;28;20244;-74
2023/10/14 02:05:26;;;;;;;8.27;5.60;;;;;;;;;;4950948;29;20186;-74
2023/10/14 02:07:52;;;;;;;7.97;5.57;;;;;;;;;;4949366;28;20245;-74
2023/10/14 02:10:18;;;;;;;9.83;6.17;;;;;;;;;;4951069;29;20276;-74
2023/10/14 02:12:43;;;;;;;10.53;6.07;;;;;;;;;;4934923;29;20179;-74
2023/10/14 02:15:08;;;;;;;9.73;6.17;;;;;;;;;;4934743;29;20370;-74
2023/10/14 02:17:33;;;;;;;9.87;5.87;;;;;;;;;;4939199;29;20178;-74
2023/10/14 02:20:08;;;;;;;9.83;6.27;;;;;;;;;;4948661;29;20201;-74
2023/10/14 02:22:38;;;;;;;9.93;6.00;;;;;;;;;;4934760;29;20173;-74
2023/10/14 02:25:04;;;;;;;9.23;5.97;;;;;;;;;;4933268;29;20190;-75
2023/10/14 02:27:30;;;;;;;11.03;6.60;;;;;;;;;;4947832;29;20189;-75
2023/10/14 02:29:55;;;;;;;7.50;6.20;;;;;;;;;;4933817;29;20202;-74
2023/10/14 02:32:21;;;;;;;7.60;5.53;;;;;;;;;;4935333;29;20193;-75
2023/10/14 02:34:47;;;;;;;8.77;6.50;;;;;;;;;;4933483;29;20283;-74
2023/10/14 02:37:13;;;;;;;10.90;5.97;;;;;;;;;;4934041;29;20187;-75
2023/10/14 02:39:39;;;;;;;10.20;6.53;;;;;;;;;;4933184;29;20190;-74
2023/10/14 02:44:32;;;;;;;8.80;7.20;;;;;;;;;;4950092;29;20224;-75
2023/10/14 02:47:04;;;;;;;12.07;6.87;;;;;;;;;;4949036;28;20189;-74
2023/10/14 02:49:35;;;;;;;14.17;7.63;;;;;;;;;;4949518;29;20242;-74
2023/10/14 02:52:03;;;;;;;11.97;7.03;;;;;;;;;;4946704;28;20261;-74
2023/10/14 02:54:32;;;;;;;9.77;6.03;;;;;;;;;;4949406;28;20185;-74
2023/10/14 02:56:59;;;;;;;8.93;6.27;;;;;;;;;;4952632;28;20181;-74
2023/10/14 03:02:15;;;;;;;7.07;5.70;;;;;;;;;;4949081;29;20173;-74
2023/10/14 03:09:48;;;;;;;16.63;6.70;;;;;;;;;;4948699;29;20265;-75
2023/10/14 03:12:18;;;;;;;7.77;6.03;;;;;;;;;;4933942;29;20189;-75
2023/10/14 03:14:47;;;;;;;13.07;12.13;;;;;;;;;;4932571;29;20228;-75
2023/10/14 03:17:13;;;;;;;11.07;6.60;;;;;;;;;;4948759;28;20184;-74
2023/10/14 03:19:38;;;;;;;7.47;6.20;;;;;;;;;;4945606;29;20498;-74
2023/10/14 03:22:06;;;;;;;79.43;75.27;;;;;;;;;;4947663;28;20190;-74
2023/10/14 03:24:38;;;;;;;14.13;11.20;;;;;;;;;;4933013;29;20181;-75
2023/10/14 03:27:04;;;;;;;648.20;607.07;;;;;;;;;;4934211;29;20245;-74
2023/10/14 03:29:30;;;;;;;86.33;81.50;;;;;;;;;;4950421;29;20220;-74
2023/10/14 03:31:56;;;;;;;10.23;5.93;;;;;;;;;;4934554;29;20217;-74
2023/10/14 03:34:25;;;;;;;7.57;5.80;;;;;;;;;;4950643;29;20261;-74
2023/10/14 03:37:00;;;;;;;10.67;6.67;;;;;;;;;;4931356;29;20334;-74
2023/10/14 03:39:41;;;;;;;383.47;358.07;;;;;;;;;;4941920;28;20189;-74
2023/10/14 03:42:10;;;;;;;503.77;468.17;;;;;;;;;;4950183;28;20175;-75
2023/10/14 03:44:35;;;;;;;878.67;815.10;;;;;;;;;;4936325;29;20525;-74
2023/10/14 03:47:01;;;;;;;739.97;688.20;;;;;;;;;;4929861;29;20213;-73
2023/10/14 03:49:26;;;;;;;205.33;190.10;;;;;;;;;;4946866;29;20174;-73
2023/10/14 03:51:56;;;;;;;755.17;703.97;;;;;;;;;;4933937;29;20180;-73
2023/10/14 03:54:26;;;;;;;803.60;746.43;;;;;;;;;;4950430;29;20173;-73
2023/10/14 03:56:53;;;;;;;908.30;840.57;;;;;;;;;;4931525;28;20205;-74
2023/10/14 03:59:22;;;;;;;892.00;824.90;;;;;;;;;;4948252;29;20265;-74
2023/10/14 04:01:54;;;;;;;6.53;5.20;;;;;;;;;;4942893;28;20191;-73
2023/10/14 04:04:23;;;;;;;888.47;824.00;;;;;;;;;;4938304;29;20271;-74
2023/10/14 04:07:13;;;;;;;860.40;795.53;;;;;;;;;;4950307;28;20199;-74
2023/10/14 04:09:50;;;;;;;832.90;770.13;;;;;;;;;;4936679;29;20225;-73
2023/10/14 04:12:53;;;;;;;714.83;662.10;;;;;;;;;;4938173;29;20189;-73
2023/10/14 04:17:40;;;;;;;831.03;766.83;;;;;;;;;;4956938;28;21144;-75
2023/10/14 04:22:38;;;;;;;6.33;3.73;;;;;;;;;;4949488;29;20183;-74
2023/10/14 04:27:37;;;;;;;45.37;41.63;;;;;;;;;;4952307;29;20178;-73
2023/10/14 04:30:13;;;;;;;673.40;617.47;;;;;;;;;;4938022;29;20238;-74
2023/10/14 04:33:03;;;;;;;10.10;5.10;;;;;;;;;;4953009;28;20172;-73
2023/10/14 04:35:33;;;;;;;7.27;4.97;;;;;;;;;;4953627;28;20217;-74
2023/10/14 04:38:02;;;;;;;6.77;5.57;;;;;;;;;;4949759;28;20252;-73
2023/10/14 04:45:52;;;;;;;7.10;5.30;;;;;;;;;;4923198;29;20240;-73
2023/10/14 04:48:19;;;;;;;7.90;5.60;;;;;;;;;;4948862;29;20178;-74
2023/10/14 04:50:44;;;;;;;7.93;5.80;;;;;;;;;;4936321;29;20209;-73
2023/10/14 04:53:13;;;;;;;10.73;5.30;;;;;;;;;;4933683;29;20181;-74
2023/10/14 04:55:43;;;;;;;7.23;5.23;;;;;;;;;;4951424;29;20181;-74
2023/10/14 05:00:41;;;;;;;7.13;5.40;;;;;;;;;;4951937;29;20331;-73
2023/10/14 05:03:09;;;;;;;9.00;5.17;;;;;;;;;;4939411;29;20254;-74
2023/10/14 05:05:34;;;;;;;6.03;4.70;;;;;;;;;;4948900;28;20181;-74
2023/10/14 05:08:02;;;;;;;5.13;4.60;;;;;;;;;;4951967;28;20261;-74
2023/10/14 05:10:28;;;;;;;7.67;5.27;;;;;;;;;;4956020;28;20229;-74
2023/10/14 05:12:54;;;;;;;9.50;5.83;;;;;;;;;;4952081;29;20220;-73
2023/10/14 05:15:20;;;;;;;5.47;4.63;;;;;;;;;;4952024;28;21720;-74
2023/10/14 05:17:46;;;;;;;7.30;4.53;;;;;;;;;;4952457;28;20234;-75
2023/10/14 05:20:27;;;;;;;8.43;5.00;;;;;;;;;;4933360;29;20227;-74
2023/10/14 05:22:52;;;;;;;13.30;4.80;;;;;;;;;;4935359;28;20226;-74
2023/10/14 05:25:23;;;;;;;7.50;4.63;;;;;;;;;;4952557;29;20212;-74
2023/10/14 05:27:55;;;;;;;6.63;4.80;;;;;;;;;;4937391;28;20199;-74
2023/10/14 05:30:21;;;;;;;7.07;4.10;;;;;;;;;;4934499;29;20200;-75
2023/10/14 05:32:48;;;;;;;4.00;3.60;;;;;;;;;;4952957;28;20270;-75
2023/10/14 05:35:13;;;;;;;5.03;3.63;;;;;;;;;;4950645;29;20188;-74
2023/10/14 05:37:41;;;;;;;3.87;3.17;;;;;;;;;;4949730;28;20180;-75
2023/10/14 05:40:13;;;;;;;5.90;3.43;;;;;;;;;;4937603;28;20189;-75
2023/10/14 05:42:39;;;;;;;5.10;3.37;;;;;;;;;;4952708;28;20177;-74
2023/10/14 05:45:04;;;;;;;4.40;3.00;;;;;;;;;;4949143;28;20284;-74
2023/10/14 05:47:29;;;;;;;3.53;2.80;;;;;;;;;;4930684;29;20200;-74
2023/10/14 05:49:55;;;;;;;6.07;3.43;;;;;;;;;;4930788;29;20321;-75
2023/10/14 05:52:26;;;;;;;3.87;2.73;;;;;;;;;;4937225;29;20188;-74
2023/10/14 05:54:51;;;;;;;4.37;2.73;;;;;;;;;;4935380;28;20192;-74
2023/10/14 05:57:17;;;;;;;4.80;2.93;;;;;;;;;;4951657;28;20179;-74
2023/10/14 05:59:43;;;;;;;7.43;3.60;;;;;;;;;;4931721;28;20251;-75
2023/10/14 06:02:12;;;;;;;3.77;3.47;;;;;;;;;;4950983;28;20223;-74
2023/10/14 06:04:40;;;;;;;6.13;3.40;;;;;;;;;;4951982;29;20181;-74
2023/10/14 06:07:09;;;;;;;4.00;3.10;;;;;;;;;;4950857;28;20213;-74
2023/10/14 06:09:36;;;;;;;6.10;2.90;;;;;;;;;;4932539;29;20233;-75
2023/10/14 06:12:01;;;;;;;7.30;2.70;;;;;;;;;;4931291;29;20212;-74
2023/10/14 06:14:26;;;;;;;7.03;2.80;;;;;;;;;;4929575;29;20266;-75
2023/10/14 06:16:51;;;;;;;2.50;2.30;;;;;;;;;;4933491;29;20184;-74
2023/10/14 06:19:18;;;;;;;4.20;2.40;;;;;;;;;;4939223;28;20185;-74
2023/10/14 06:21:44;;;;;;;7.40;3.67;;;;;;;;;;4932451;29;20280;-74
2023/10/14 06:24:10;;;;;;;3.23;2.17;;;;;;;;;;4934023;29;20192;-75
2023/10/14 06:26:36;;;;;;;6.70;2.10;;;;;;;;;;4946158;29;20187;-74
2023/10/14 06:29:01;;;;;;;6.37;2.70;;;;;;;;;;4930237;29;20229;-74
2023/10/14 06:31:26;;;;;;;2.90;2.13;;;;;;;;;;4930688;29;20201;-75
2023/10/14 06:33:55;;;;;;;3.60;2.77;;;;;;;;;;4930265;29;20268;-75
2023/10/14 06:36:23;;;;;;;4.97;2.40;;;;;;;;;;4932567;29;20169;-74
2023/10/14 06:38:49;;;;;;;6.93;3.03;;;;;;;;;;4928197;29;20180;-74
2023/10/14 06:41:16;;;;;;;3.83;2.30;;;;;;;;;;4930242;29;20190;-74
2023/10/14 06:43:43;;;;;;;2.70;1.90;;;;;;;;;;4931149;29;20239;-74
2023/10/14 06:46:11;;;;;;;2.67;2.07;;;;;;;;;;4925682;29;20261;-74
2023/10/14 06:48:38;;;;;;;4.17;2.07;;;;;;;;;;4929353;29;20186;-75
2023/10/14 06:51:03;;;;;;;4.60;2.10;;;;;;;;;;4931279;29;20221;-74
2023/10/14 06:53:29;;;;;;;2.07;1.70;;;;;;;;;;4929337;29;20216;-75
2023/10/14 06:55:54;;;;;;;3.27;2.37;;;;;;;;;;4930113;29;20184;-74
2023/10/14 06:58:21;;;;;;;2.90;1.60;;;;;;;;;;4931183;29;20177;-76
2023/10/14 07:00:48;;;;;;;2.30;1.90;;;;;;;;;;4929522;29;20189;-75
2023/10/14 07:03:14;;;;;;;3.40;1.73;;;;;;;;;;4932532;29;20181;-75
2023/10/14 07:05:43;;;;;;;1.97;1.77;;;;;;;;;;4929826;29;20202;-75
2023/10/14 07:08:09;;;;;;;2.53;2.07;;;;;;;;;;4938476;28;20245;-75
2023/10/14 07:10:34;;;;;;;3.03;1.97;;;;;;;;;;4951133;29;20264;-76
2023/10/14 07:13:03;;;;;;;8.23;2.00;;;;;;;;;;4934322;29;20188;-75
2023/10/14 07:15:32;;;;;;;5.13;2.03;;;;;;;;;;4934021;29;20212;-76
2023/10/14 07:17:58;;;;;;;2.80;2.20;;;;;;;;;;4937116;29;20184;-75
2023/10/14 07:20:23;;;;;;;3.23;1.87;;;;;;;;;;4948575;28;20185;-75
2023/10/14 07:22:49;;;;;;;5.10;3.40;;;;;;;;;;4933069;29;20185;-75
2023/10/14 07:25:15;;;;;;;3.97;2.57;;;;;;;;;;4950346;28;20195;-76
2023/10/14 07:27:40;;;;;;;4.20;2.03;;;;;;;;;;4933537;29;20189;-75
2023/10/14 07:30:15;;;;;;;6.53;2.17;;;;;;;;;;4934612;29;20204;-76
2023/10/14 07:32:45;;;;;;;2.80;1.90;;;;;;;;;;4931183;29;20189;-75
2023/10/14 07:35:15;;;;;;;3.13;2.10;;;;;;;;;;4939167;29;20189;-76
2023/10/14 07:37:45;;;;;;;3.57;1.70;;;;;;;;;;4946624;28;20212;-75
2023/10/14 07:40:22;;;;;;;2.73;1.87;;;;;;;;;;4934552;29;20195;-75
2023/10/14 07:42:54;;;;;;;4.10;2.07;;;;;;;;;;4937021;29;20215;-76
2023/10/14 07:45:21;;;;;;;3.60;2.20;;;;;;;;;;4937803;29;20185;-75
2023/10/14 07:47:47;;;;;;;3.53;2.23;;;;;;;;;;4935030;29;20188;-76
2023/10/14 07:50:12;;;;;;;2.07;1.80;;;;;;;;;;4954284;28;20205;-76
2023/10/14 07:52:37;;;;;;;3.53;2.50;;;;;;;;;;4937200;29;20190;-75
2023/10/14 07:55:10;;;;;;;2.50;1.80;;;;;;;;;;4936842;29;20189;-76
2023/10/14 07:57:35;;;;;;;3.13;1.90;;;;;;;;;;4937197;29;20177;-76
2023/10/14 08:00:09;;;;;;;3.87;1.70;;;;;;;;;;4952083;29;20460;-75
2023/10/14 08:02:35;;;;;;;3.43;1.57;;;;;;;;;;4957125;28;20184;-76
2023/10/14 08:05:00;;;;;;;4.37;2.00;;;;;;;;;;4935804;28;20199;-75
2023/10/14 08:07:27;;;;;;;5.20;2.00;;;;;;;;;;4952777;28;20208;-73
2023/10/14 08:09:52;;;;;;;6.17;2.20;;;;;;;;;;4954726;28;20286;-76
2023/10/14 08:12:17;;;;;;;5.67;2.43;;;;;;;;;;4938507;29;20320;-77
2023/10/14 08:14:44;;;;;;;1.97;1.60;;;;;;;;;;4945878;29;20189;-77
2023/10/14 08:17:11;;;;;;;2.03;1.77;;;;;;;;;;4959784;28;20187;-76
2023/10/14 08:19:37;;;;;;;2.97;1.80;;;;;;;;;;4954377;29;20177;-76
2023/10/14 08:22:05;;;;;;;3.73;2.27;;;;;;;;;;4951495;29;20194;-76
2023/10/14 08:24:30;;;;;;;4.70;2.30;;;;;;;;;;4933439;29;20211;-76
2023/10/14 08:26:55;;;;;;;1.30;1.20;;;;;;;;;;4953700;28;20214;-76
2023/10/14 08:29:20;;;;;;;2.00;1.80;;;;;;;;;;4953827;28;20216;-76
2023/10/14 08:31:51;;;;;;;5.37;2.13;;;;;;;;;;4953688;29;20214;-76
2023/10/14 08:34:16;;;;;;;2.60;1.40;;;;;;;;;;4952838;28;20190;-76
2023/10/14 08:36:42;;;;;;;1.90;1.60;;;;;;;;;;4937660;29;20198;-76
2023/10/14 08:39:08;;;;;;;3.70;1.50;;;;;;;;;;4954812;28;20181;-77
2023/10/14 08:41:36;;;;;;;1.80;1.63;;;;;;;;;;4943616;28;20181;-78
2023/10/14 08:44:08;;;;;;;2.53;1.47;;;;;;;;;;4952066;29;20244;-78
2023/10/14 08:46:35;;;;;;;1.57;0.80;;;;;;;;;;4953269;28;20181;-83
2023/10/14 08:49:03;;;;;;;1.37;0.90;;;;;;;;;;4954012;29;20192;-82
2023/10/14 08:51:29;;;;;;;1.70;0.67;;;;;;;;;;4940894;29;20205;-81
2023/10/14 08:53:54;;;;;;;0.60;0.50;;;;;;;;;;4934304;28;20276;-81
2023/10/14 08:56:22;;;;;;;0.30;0.30;;;;;;;;;;4953181;28;20192;-80
2023/10/14 08:58:47;;;;;;;0.40;0.40;;;;;;;;;;4953229;29;20189;-80
2023/10/14 09:01:15;;;;;;;0.57;0.57;;;;;;;;;;4950413;28;20246;-81
2023/10/14 09:03:44;;;;;;;0.47;0.47;;;;;;;;;;4956784;28;20189;-82
2023/10/14 09:06:11;;;;;;;0.73;0.73;;;;;;;;;;4951968;28;20195;-82
2023/10/14 09:08:36;;;;;;;0.60;0.60;;;;;;;;;;4934567;28;20374;-80
2023/10/14 09:11:03;;;;;;;0.70;0.70;;;;;;;;;;4930301;29;20228;-79
2023/10/14 09:13:28;;;;;;;1.03;0.80;;;;;;;;;;4949730;28;20179;-79
2023/10/14 09:15:57;;;;;;;0.50;0.50;;;;;;;;;;4935307;28;20235;-79
2023/10/14 09:18:25;;;;;;;0.63;0.63;;;;;;;;;;4940259;29;20178;-81
2023/10/14 09:20:54;;;;;;;1.00;0.80;;;;;;;;;;4950645;28;20180;-79
2023/10/14 09:23:19;;;;;;;0.50;0.50;;;;;;;;;;4936671;29;20184;-79
2023/10/14 09:25:52;;;;;;;0.50;0.50;;;;;;;;;;4947319;28;20239;-79
2023/10/14 09:28:20;;;;;;;0.50;0.50;;;;;;;;;;4930986;29;20612;-80
2023/10/14 09:30:46;;;;;;;0.40;0.40;;;;;;;;;;4950129;28;20243;-79
2023/10/14 09:33:15;;;;;;;0.47;0.47;;;;;;;;;;4932489;29;20286;-80
2023/10/14 09:35:41;;;;;;;0.33;0.33;;;;;;;;;;4936118;29;20212;-80
2023/10/14 09:38:08;;;;;;;0.43;0.30;;;;;;;;;;4933319;29;20187;-79
2023/10/14 09:40:33;;;;;;;0.40;0.40;;;;;;;;;;4953922;28;20179;-80
2023/10/14 09:42:59;;;;;;;0.60;0.60;;;;;;;;;;4936354;29;20237;-79
2023/10/14 09:45:25;;;;;;;0.30;0.30;;;;;;;;;;4951606;28;20257;-80
2023/10/14 09:47:52;;;;;;;0.33;0.33;;;;;;;;;;4951668;28;20194;-79
2023/10/14 09:50:19;;;;;;;0.40;0.40;;;;;;;;;;4950020;28;20269;-79
2023/10/14 09:52:45;;;;;;;0.30;0.30;;;;;;;;;;4934111;29;20186;-80
2023/10/14 09:55:14;;;;;;;0.30;0.30;;;;;;;;;;4934029;29;20182;-80
2023/10/14 09:57:45;;;;;;;1.30;0.67;;;;;;;;;;4947977;28;20211;-79
2023/10/14 10:00:11;;;;;;;0.30;0.30;;;;;;;;;;4948498;29;20183;-79
2023/10/14 10:02:38;;;;;;;2.23;0.30;;;;;;;;;;4949512;28;20273;-79
2023/10/14 10:05:04;;;;;;;0.43;0.43;;;;;;;;;;4933895;28;20214;-79
2023/10/14 10:07:50;;;;;;;8.63;6.27;;;;;;;;;;4948661;28;20254;-80
2023/10/14 10:10:18;;;;;;;1.33;1.33;;;;;;;;;;4951752;28;20240;-80
2023/10/14 10:12:45;;;;;;;1.50;0.50;;;;;;;;;;4950402;29;20183;-79
2023/10/14 10:15:10;;;;;;;0.43;0.43;;;;;;;;;;4933444;28;20220;-79
2023/10/14 10:17:39;;;;;;;1.47;0.53;;;;;;;;;;4936498;29;20177;-79
2023/10/14 10:20:09;;;;;;;0.40;0.40;;;;;;;;;;4951817;28;20215;-79
2023/10/14 10:22:41;;;;;;;0.43;0.43;;;;;;;;;;4948264;28;20193;-79
2023/10/14 10:25:09;;;;;;;0.40;0.40;;;;;;;;;;4934336;28;20194;-79
2023/10/14 10:27:35;;;;;;;0.20;0.20;;;;;;;;;;4951958;29;20177;-79
2023/10/14 10:30:04;;;;;;;0.60;0.60;;;;;;;;;;4938829;29;20257;-79
2023/10/14 10:32:30;;;;;;;0.30;0.30;;;;;;;;;;4936028;29;20187;-79
2023/10/14 10:35:04;;;;;;;0.93;0.73;;;;;;;;;;4949775;29;20202;-80
2023/10/14 10:37:31;;;;;;;0.30;0.30;;;;;;;;;;4947650;28;20163;-80
2023/10/14 10:39:56;;;;;;;0.40;0.40;;;;;;;;;;4938183;29;20206;-80
2023/10/14 10:42:22;;;;;;;7.87;2.50;;;;;;;;;;4950331;28;20216;-79
2023/10/14 10:44:47;;;;;;;0.80;0.80;;;;;;;;;;4934927;29;20179;-79
2023/10/14 10:47:14;;;;;;;0.63;0.63;;;;;;;;;;4939637;29;20324;-80
2023/10/14 10:49:49;;;;;;;0.50;0.50;;;;;;;;;;4951782;29;20186;-79
2023/10/14 10:52:14;;;;;;;0.57;0.57;;;;;;;;;;4934589;29;20517;-79
2023/10/14 10:54:43;;;;;;;0.37;0.37;;;;;;;;;;4950182;29;20281;-79
2023/10/14 10:57:08;;;;;;;0.97;0.50;;;;;;;;;;4950064;29;20180;-79
2023/10/14 10:59:36;;;;;;;0.57;0.57;;;;;;;;;;4946096;29;20175;-80
2023/10/14 11:02:02;;;;;;;1.07;0.30;;;;;;;;;;4951342;29;20174;-79
2023/10/14 11:04:30;;;;;;;0.70;0.70;;;;;;;;;;4930392;29;20181;-79
2023/10/14 11:06:55;;;;;;;1.00;0.67;;;;;;;;;;4934464;29;20208;-79
2023/10/14 11:09:20;;;;;;;0.40;0.40;;;;;;;;;;4949178;28;20226;-79
2023/10/14 11:11:45;;;;;;;0.30;0.30;;;;;;;;;;4935443;29;20277;-80
2023/10/14 11:14:14;;;;;;;0.30;0.30;;;;;;;;;;4949969;28;20183;-79
2023/10/14 11:16:42;;;;;;;0.50;0.40;;;;;;;;;;4939918;28;20191;-79
2023/10/14 11:19:07;;;;;;;0.63;0.30;;;;;;;;;;4933303;29;20209;-79
2023/10/14 11:21:33;;;;;;;0.37;0.37;;;;;;;;;;4934240;29;20175;-79
2023/10/14 11:24:01;;;;;;;0.40;0.40;;;;;;;;;;4951069;29;20568;-80
2023/10/14 11:26:27;;;;;;;0.20;0.20;;;;;;;;;;4950383;29;20500;-78
2023/10/14 11:28:52;;;;;;;0.30;0.30;;;;;;;;;;4950956;29;20373;-81
2023/10/14 11:31:20;;;;;;;0.20;0.20;;;;;;;;;;4934045;29;20200;-79
2023/10/14 11:33:46;;;;;;;0.30;0.30;;;;;;;;;;4936140;29;20189;-80
2023/10/14 11:36:17;;;;;;;0.83;0.40;;;;;;;;;;4932151;29;20188;-80
2023/10/14 11:38:43;;;;;;;0.13;0.13;;;;;;;;;;4938836;29;20185;-79
2023/10/14 11:41:10;;;;;;;0.47;0.47;;;;;;;;;;4951027;28;20257;-81
2023/10/14 11:43:35;;;;;;;0.10;0.10;;;;;;;;;;4933661;29;20182;-80
2023/10/14 11:46:00;;;;;;;1.00;0.33;;;;;;;;;;4933543;29;20232;-80
2023/10/14 11:48:26;;;;;;;0.30;0.30;;;;;;;;;;4938820;29;20221;-81
2023/10/14 11:50:59;;;;;;;1.30;0.30;;;;;;;;;;4934176;29;20201;-79
2023/10/14 11:53:28;;;;;;;0.33;0.33;;;;;;;;;;4948704;28;20185;-80
2023/10/14 11:55:58;;;;;;;0.37;0.37;;;;;;;;;;4950172;28;20192;-80
2023/10/14 11:58:23;;;;;;;0.50;0.50;;;;;;;;;;4934647;29;20268;-79
2023/10/14 12:00:49;;;;;;;0.60;0.60;;;;;;;;;;4934612;29;20280;-79
2023/10/14 12:03:14;;;;;;;0.70;0.70;;;;;;;;;;4931283;29;20205;-79
2023/10/14 12:05:39;;;;;;;0.90;0.90;;;;;;;;;;4935485;29;20235;-81
2023/10/14 12:08:08;;;;;;;0.80;0.80;;;;;;;;;;4933478;29;20248;-81
2023/10/14 12:10:33;;;;;;;1.00;1.00;;;;;;;;;;4941535;29;20224;-79
2023/10/14 12:12:59;;;;;;;1.20;1.20;;;;;;;;;;4948466;29;20201;-80
2023/10/14 12:15:24;;;;;;;5.70;2.70;;;;;;;;;;4933967;29;20176;-81
2023/10/14 12:17:50;;;;;;;0.90;0.90;;;;;;;;;;4953340;28;20212;-81
2023/10/14 12:20:15;;;;;;;1.30;1.20;;;;;;;;;;4931112;29;20203;-80
2023/10/14 12:22:41;;;;;;;0.80;0.80;;;;;;;;;;4947800;28;20184;-79
2023/10/14 12:25:07;;;;;;;1.30;1.20;;;;;;;;;;4930626;29;20189;-80
2023/10/14 12:27:33;;;;;;;1.47;1.37;;;;;;;;;;4947991;28;20199;-80
2023/10/14 12:30:00;;;;;;;1.10;1.10;;;;;;;;;;4937276;29;20203;-80
2023/10/14 12:32:32;;;;;;;1.60;1.50;;;;;;;;;;4935206;28;20184;-80
2023/10/14 12:35:01;;;;;;;2.60;1.60;;;;;;;;;;4950201;29;20175;-82
2023/10/14 12:37:28;;;;;;;1.73;1.60;;;;;;;;;;4933599;29;20183;-80
2023/10/14 12:39:59;;;;;;;2.23;2.00;;;;;;;;;;4934445;28;20263;-81
2023/10/14 12:42:44;;;;;;;1.57;1.40;;;;;;;;;;4936630;29;20183;-80
2023/10/14 12:45:13;;;;;;;1.30;1.20;;;;;;;;;;4952866;28;20182;-81
2023/10/14 12:47:46;;;;;;;5.17;3.30;;;;;;;;;;4936764;29;20174;-80
2023/10/14 12:50:15;;;;;;;2.53;2.07;;;;;;;;;;4935989;28;20265;-79
2023/10/14 12:52:41;;;;;;;1.27;1.17;;;;;;;;;;4936857;29;20181;-79
2023/10/14 12:55:17;;;;;;;1.50;1.40;;;;;;;;;;4951313;28;20187;-79
2023/10/14 12:57:42;;;;;;;3.10;1.40;;;;;;;;;;4946383;28;20191;-79
2023/10/14 13:00:17;;;;;;;1.50;1.40;;;;;;;;;;4950916;28;20181;-80
2023/10/14 13:02:42;;;;;;;1.67;1.57;;;;;;;;;;4946519;29;20188;-80
2023/10/14 13:05:13;;;;;;;3.00;1.90;;;;;;;;;;4939154;29;20181;-80
2023/10/14 13:07:39;;;;;;;4.17;1.60;;;;;;;;;;4944817;29;20332;-80
2023/10/14 13:10:06;;;;;;;1.73;1.40;;;;;;;;;;4936699;29;20237;-81
2023/10/14 13:12:31;;;;;;;2.47;1.60;;;;;;;;;;4952244;29;20194;-80
2023/10/14 13:14:57;;;;;;;3.17;1.63;;;;;;;;;;4952038;28;20191;-80
2023/10/14 13:17:23;;;;;;;3.23;1.60;;;;;;;;;;4953924;28;20199;-80
2023/10/14 13:19:48;;;;;;;4.27;1.73;;;;;;;;;;4951838;28;20190;-80
2023/10/14 13:22:15;;;;;;;2.97;1.60;;;;;;;;;;4951573;29;20189;-79
2023/10/14 13:24:41;;;;;;;6.43;3.47;;;;;;;;;;4935220;29;20185;-80
2023/10/14 13:27:06;;;;;;;2.27;1.93;;;;;;;;;;4952179;28;20284;-80
2023/10/14 13:29:31;;;;;;;3.17;2.10;;;;;;;;;;4952481;28;20193;-79
2023/10/14 13:31:57;;;;;;;2.23;2.00;;;;;;;;;;4952044;28;20296;-79
2023/10/14 13:34:22;;;;;;;5.40;2.50;;;;;;;;;;4952859;28;20216;-81
2023/10/14 13:36:47;;;;;;;3.63;2.67;;;;;;;;;;4935692;29;20217;-81
2023/10/14 13:39:15;;;;;;;3.73;2.80;;;;;;;;;;4936074;28;20185;-81
2023/10/14 13:41:43;;;;;;;4.17;2.87;;;;;;;;;;4952182;28;20174;-79
2023/10/14 13:44:08;;;;;;;3.43;3.13;;;;;;;;;;4953001;28;20247;-80
2023/10/14 13:46:33;;;;;;;3.70;2.80;;;;;;;;;;4933639;29;20197;-78
2023/10/14 13:48:59;;;;;;;4.00;2.47;;;;;;;;;;4930355;29;20189;-80
2023/10/14 13:51:24;;;;;;;6.30;3.47;;;;;;;;;;4950871;28;20205;-80
2023/10/14 13:53:50;;;;;;;6.60;3.17;;;;;;;;;;4934475;29;20188;-80
2023/10/14 13:56:15;;;;;;;7.03;3.50;;;;;;;;;;4950935;28;20185;-82
2023/10/14 13:58:40;;;;;;;4.00;2.80;;;;;;;;;;4934587;29;20276;-81
2023/10/14 14:01:11;;;;;;;5.27;3.43;;;;;;;;;;4940832;29;20181;-81
2023/10/14 14:03:39;;;;;;;3.97;2.60;;;;;;;;;;4935752;29;20189;-80
2023/10/14 14:06:05;;;;;;;5.67;3.40;;;;;;;;;;4951053;28;20188;-82
2023/10/14 14:08:30;;;;;;;4.87;2.73;;;;;;;;;;4949656;28;20233;-81
2023/10/14 14:11:00;;;;;;;5.13;3.30;;;;;;;;;;4934449;28;20201;-81
2023/10/14 14:13:27;;;;;;;4.97;3.07;;;;;;;;;;4933717;29;20178;-82
2023/10/14 14:15:53;;;;;;;6.87;3.10;;;;;;;;;;4949063;28;20216;-81
2023/10/14 14:18:18;;;;;;;5.27;2.80;;;;;;;;;;4954628;28;20229;-80
2023/10/14 14:20:44;;;;;;;4.93;2.83;;;;;;;;;;4931085;29;20182;-81
2023/10/14 14:23:09;;;;;;;5.17;2.87;;;;;;;;;;4948380;28;20185;-81
2023/10/14 14:25:35;;;;;;;7.57;3.43;;;;;;;;;;4935459;28;20209;-80
2023/10/14 14:28:01;;;;;;;8.77;2.93;;;;;;;;;;4952643;28;20181;-81
2023/10/14 14:30:30;;;;;;;4.80;2.80;;;;;;;;;;4933454;28;20208;-80
2023/10/14 14:32:55;;;;;;;6.13;3.50;;;;;;;;;;4951859;28;20292;-81
2023/10/14 14:35:26;;;;;;;7.47;3.07;;;;;;;;;;4933243;29;20199;-80
2023/10/14 14:37:51;;;;;;;5.57;3.27;;;;;;;;;;4941854;29;20863;-81
2023/10/14 14:40:23;;;;;;;4.57;2.80;;;;;;;;;;4935258;28;20202;-79
2023/10/14 14:42:48;;;;;;;7.43;3.73;;;;;;;;;;4948578;28;20213;-79
2023/10/14 14:45:14;;;;;;;5.47;3.43;;;;;;;;;;4948637;28;20263;-78
2023/10/14 14:47:40;;;;;;;5.07;3.13;;;;;;;;;;4941149;28;20228;-81
2023/10/14 14:50:13;;;;;;;6.70;2.70;;;;;;;;;;4934241;28;20205;-79
2023/10/14 14:52:38;;;;;;;6.33;3.33;;;;;;;;;;4931864;28;20283;-77
2023/10/14 14:55:04;;;;;;;7.20;3.43;;;;;;;;;;4948948;28;20177;-80
2023/10/14 14:57:29;;;;;;;6.10;3.10;;;;;;;;;;4948510;28;20174;-78
2023/10/14 14:59:56;;;;;;;6.13;2.80;;;;;;;;;;4933503;29;20177;-80
2023/10/14 15:02:21;;;;;;;9.40;2.77;;;;;;;;;;4933057;28;20234;-80
2023/10/14 15:04:48;;;;;;;9.03;3.77;;;;;;;;;;4933326;29;20183;-79
2023/10/14 15:07:13;;;;;;;3.77;2.90;;;;;;;;;;4932472;28;20210;-80
2023/10/14 15:09:38;;;;;;;3.73;2.50;;;;;;;;;;4950255;28;20214;-80
2023/10/14 15:12:07;;;;;;;5.23;2.97;;;;;;;;;;4931477;28;20206;-80